createdAt,value
2018-10-16T00:01:15.764Z,12.87
2018-10-16T00:03:45.927Z,12.90
2018-10-16T00:06:15.979Z,12.88
2018-10-16T00:08:46.052Z,12.85
2018-10-16T00:11:16.113Z,12.76
2018-10-16T00:13:46.178Z,12.67
2018-10-16T00:16:16.249Z,12.55
2018-10-16T00:18:46.200Z,12.48
2018-10-16T00:21:16.198Z,12.37
2018-10-16T00:23:46.319Z,12.33
2018-10-16T00:26:16.414Z,12.65
2018-10-16T00:28:46.548Z,12.89
2018-10-16T00:31:16.554Z,12.89
2018-10-16T00:33:46.668Z,12.86
2018-10-16T00:36:16.703Z,12.93
2018-10-16T00:38:46.694Z,12.83
2018-10-16T00:41:16.774Z,12.75
2018-10-16T00:43:46.923Z,12.73
2018-10-16T00:46:16.991Z,12.91
2018-10-16T00:48:47.018Z,12.87
2018-10-16T00:51:17.038Z,12.84
2018-10-16T00:53:47.082Z,12.89
2018-10-16T00:56:17.157Z,13.23
2018-10-16T00:58:47.223Z,13.60
2018-10-16T01:01:31.172Z,13.56
2018-10-16T01:04:05.433Z,13.67
2018-10-16T01:06:36.244Z,13.76
2018-10-16T01:09:15.014Z,13.45
2018-10-16T01:11:44.973Z,13.17
2018-10-16T01:14:15.004Z,12.92
2018-10-16T01:16:45.055Z,12.70
2018-10-16T01:19:15.119Z,12.67
2018-10-16T01:21:45.234Z,12.59
2018-10-16T01:24:15.209Z,12.44
2018-10-16T01:26:45.259Z,12.33
2018-10-16T01:29:15.364Z,12.23
2018-10-16T01:31:45.370Z,12.31
2018-10-16T01:34:15.407Z,12.24
2018-10-16T01:36:45.455Z,12.31
2018-10-16T01:39:15.472Z,12.61
2018-10-16T01:41:45.482Z,12.87
2018-10-16T01:44:15.418Z,13.03
2018-10-16T01:46:45.428Z,13.17
2018-10-16T01:49:18.118Z,13.47
2018-10-16T01:51:48.108Z,13.52
2018-10-16T01:54:18.087Z,13.74
2018-10-16T01:56:48.093Z,13.68
2018-10-16T01:59:18.074Z,13.44
2018-10-16T02:01:48.288Z,13.16
2018-10-16T02:04:18.242Z,12.93
2018-10-16T02:06:48.317Z,13.01
2018-10-16T02:09:18.378Z,13.14
2018-10-16T02:11:48.411Z,13.22
2018-10-16T02:14:18.479Z,13.12
2018-10-16T02:16:48.587Z,12.90
2018-10-16T02:19:18.571Z,12.82
2018-10-16T02:21:48.594Z,12.75
2018-10-16T02:24:18.668Z,12.84
2018-10-16T02:26:48.601Z,13.06
2018-10-16T02:29:18.668Z,13.11
2018-10-16T02:31:48.827Z,13.13
2018-10-16T02:34:18.907Z,13.06
2018-10-16T02:36:48.905Z,13.11
2018-10-16T02:39:18.926Z,13.10
2018-10-16T02:41:48.966Z,13.23
2018-10-16T02:44:18.998Z,13.58
2018-10-16T02:46:49.093Z,13.83
2018-10-16T02:49:19.223Z,13.91
2018-10-16T02:51:49.222Z,14.07
2018-10-16T02:54:19.304Z,14.12
2018-10-16T02:56:49.328Z,13.88
2018-10-16T02:59:19.326Z,13.67
2018-10-16T03:01:49.370Z,13.48
2018-10-16T03:04:19.351Z,13.35
2018-10-16T03:06:49.344Z,13.20
2018-10-16T03:09:19.314Z,13.16
2018-10-16T03:11:49.299Z,13.23
2018-10-16T03:14:19.317Z,13.27
2018-10-16T03:16:49.378Z,13.26
2018-10-16T03:19:19.552Z,13.18
2018-10-16T03:21:49.548Z,13.11
2018-10-16T03:24:19.572Z,13.01
2018-10-16T03:26:49.574Z,13.00
2018-10-16T03:29:19.517Z,13.06
2018-10-16T03:31:49.526Z,13.06
2018-10-16T03:34:19.499Z,13.14
2018-10-16T03:36:49.505Z,13.27
2018-10-16T03:39:19.476Z,13.19
2018-10-16T03:41:49.455Z,13.18
2018-10-16T03:44:19.518Z,13.20
2018-10-16T03:46:49.577Z,13.15
2018-10-16T03:49:19.767Z,13.28
2018-10-16T03:51:49.826Z,13.19
2018-10-16T03:54:19.866Z,13.12
2018-10-16T03:56:49.985Z,13.01
2018-10-16T03:59:20.076Z,13.09
2018-10-16T04:01:50.087Z,13.10
2018-10-16T04:04:20.307Z,13.09
2018-10-16T04:06:50.447Z,13.16
2018-10-16T04:09:20.384Z,13.17
2018-10-16T04:11:50.420Z,13.12
2018-10-16T04:14:20.503Z,13.02
2018-10-16T04:16:50.649Z,13.09
2018-10-16T04:19:20.686Z,13.20
2018-10-16T04:21:50.623Z,13.24
2018-10-16T04:24:20.677Z,13.27
2018-10-16T04:26:50.606Z,13.26
2018-10-16T04:29:20.679Z,13.29
2018-10-16T04:31:50.676Z,13.28
2018-10-16T04:34:20.666Z,13.18
2018-10-16T04:36:50.681Z,13.17
2018-10-16T04:39:20.806Z,13.10
2018-10-16T04:41:50.832Z,13.15
2018-10-16T04:44:20.834Z,13.14
2018-10-16T04:46:50.897Z,13.20
2018-10-16T04:49:20.997Z,13.21
2018-10-16T04:51:51.111Z,13.23
2018-10-16T04:54:21.262Z,13.31
2018-10-16T04:56:52.398Z,13.20
2018-10-16T04:59:22.447Z,13.18
2018-10-16T05:01:52.512Z,13.10
2018-10-16T05:04:22.484Z,12.95
2018-10-16T05:06:52.592Z,12.90
2018-10-16T05:09:22.735Z,13.00
2018-10-16T05:11:54.195Z,12.91
2018-10-16T05:14:24.455Z,12.83
2018-10-16T05:16:54.514Z,12.79
2018-10-16T05:19:24.499Z,12.82
2018-10-16T05:21:54.508Z,12.86
2018-10-16T05:24:24.496Z,12.74
2018-10-16T05:26:54.817Z,12.66
2018-10-16T05:29:24.887Z,12.64
2018-10-16T05:31:54.873Z,12.60
2018-10-16T05:34:24.938Z,12.72
2018-10-16T05:36:54.915Z,12.82
2018-10-16T05:39:24.911Z,12.96
2018-10-16T05:41:54.926Z,13.16
2018-10-16T05:44:24.936Z,13.44
2018-10-16T05:46:54.977Z,13.65
2018-10-16T05:49:25.003Z,13.73
2018-10-16T05:51:55.001Z,13.84
2018-10-16T05:54:25.149Z,13.63
2018-10-16T05:56:55.025Z,13.49
2018-10-16T05:59:25.080Z,13.43
2018-10-16T06:01:55.062Z,13.29
2018-10-16T06:04:25.136Z,13.18
2018-10-16T06:06:55.176Z,13.17
2018-10-16T06:09:25.270Z,13.13
2018-10-16T06:11:55.357Z,13.04
2018-10-16T06:14:25.689Z,12.94
2018-10-16T06:16:55.733Z,12.89
2018-10-16T06:19:25.668Z,12.82
2018-10-16T06:21:55.851Z,12.84
2018-10-16T06:24:25.862Z,13.05
2018-10-16T06:26:55.802Z,13.01
2018-10-16T06:29:25.882Z,12.82
2018-10-16T06:31:55.836Z,12.66
2018-10-16T06:34:25.946Z,12.52
2018-10-16T06:36:55.962Z,12.48
2018-10-16T06:39:26.085Z,12.52
2018-10-16T06:41:56.212Z,12.58
2018-10-16T06:44:26.253Z,12.53
2018-10-16T06:46:56.457Z,12.57
2018-10-16T06:49:26.500Z,12.60
2018-10-16T06:51:56.622Z,12.63
2018-10-16T06:54:26.779Z,12.72
2018-10-16T06:56:56.897Z,12.82
2018-10-16T06:59:27.452Z,12.91
2018-10-16T07:01:57.638Z,13.02
2018-10-16T07:04:27.647Z,13.16
2018-10-16T07:06:57.819Z,13.26
2018-10-16T07:09:27.744Z,13.48
2018-10-16T07:11:57.775Z,14.12
2018-10-16T07:14:27.821Z,14.12
2018-10-16T07:16:57.862Z,14.32
2018-10-16T07:19:27.891Z,14.51
2018-10-16T07:21:57.988Z,14.70
2018-10-16T07:24:27.998Z,14.59
2018-10-16T07:26:58.047Z,14.43
2018-10-16T07:29:28.061Z,14.41
2018-10-16T07:31:58.066Z,14.49
2018-10-16T07:34:28.081Z,14.54
2018-10-16T07:36:58.084Z,14.55
2018-10-16T07:39:28.170Z,14.62
2018-10-16T07:41:58.231Z,14.80
2018-10-16T07:44:28.238Z,15.00
2018-10-16T07:46:58.358Z,15.33
2018-10-16T07:49:28.420Z,15.50
2018-10-16T07:51:58.424Z,15.68
2018-10-16T07:54:28.490Z,15.97
2018-10-16T07:56:58.546Z,16.22
2018-10-16T07:59:29.056Z,16.32
2018-10-16T08:01:59.105Z,16.34
2018-10-16T08:04:29.118Z,16.29
2018-10-16T08:06:59.225Z,16.39
2018-10-16T08:09:29.293Z,16.56
2018-10-16T08:11:59.310Z,16.90
2018-10-16T08:14:29.325Z,17.33
2018-10-16T08:16:59.537Z,17.79
2018-10-16T08:19:29.546Z,18.15
2018-10-16T08:21:59.618Z,18.40
2018-10-16T08:24:29.588Z,18.67
2018-10-16T08:26:59.615Z,18.92
2018-10-16T08:29:29.773Z,19.18
2018-10-16T08:31:59.746Z,19.32
2018-10-16T08:34:29.820Z,19.40
2018-10-16T08:36:59.912Z,19.31
2018-10-16T08:39:41.455Z,19.42
2018-10-16T08:42:44.331Z,19.69
2018-10-16T08:45:50.225Z,19.65
2018-10-16T08:48:55.800Z,19.88
2018-10-16T08:51:52.420Z,20.38
2018-10-16T08:54:22.914Z,20.34
2018-10-16T08:56:53.007Z,20.46
2018-10-16T08:59:23.121Z,20.55
2018-10-16T09:01:53.161Z,20.70
2018-10-16T09:04:23.195Z,20.80
2018-10-16T09:06:53.281Z,20.85
2018-10-16T09:09:23.291Z,20.72
2018-10-16T09:11:53.294Z,20.78
2018-10-16T09:14:23.354Z,20.76
2018-10-16T09:16:53.372Z,20.85
2018-10-16T09:19:23.411Z,20.86
2018-10-16T09:21:53.446Z,20.91
2018-10-16T09:24:23.609Z,20.95
2018-10-16T09:26:53.701Z,20.91
2018-10-16T09:29:23.665Z,21.01
2018-10-16T09:31:53.730Z,21.16
2018-10-16T09:34:23.705Z,21.43
2018-10-16T09:36:53.781Z,21.68
2018-10-16T09:39:23.760Z,21.82
2018-10-16T09:41:53.770Z,22.01
2018-10-16T09:44:23.837Z,22.07
2018-10-16T09:46:53.861Z,22.02
2018-10-16T09:49:23.916Z,22.18
2018-10-16T09:51:53.886Z,22.34
2018-10-16T09:54:23.912Z,22.48
2018-10-16T09:56:53.905Z,22.72
2018-10-16T09:59:23.908Z,22.65
2018-10-16T10:01:57.285Z,22.69
2018-10-16T10:04:27.396Z,22.72
2018-10-16T10:06:57.375Z,22.79
2018-10-16T10:09:27.402Z,23.03
2018-10-16T10:11:57.386Z,23.13
2018-10-16T10:14:27.456Z,23.36
2018-10-16T10:16:57.391Z,23.82
2018-10-16T10:19:27.425Z,24.05
2018-10-16T10:21:57.486Z,24.29
2018-10-16T10:24:27.516Z,24.57
2018-10-16T10:26:57.525Z,24.44
2018-10-16T10:29:28.060Z,24.22
2018-10-16T10:31:58.152Z,23.95
2018-10-16T10:34:28.122Z,23.91
2018-10-16T10:36:58.296Z,23.62
2018-10-16T10:39:28.321Z,23.62
2018-10-16T10:41:58.322Z,23.39
2018-10-16T10:44:28.315Z,23.29
2018-10-16T10:46:58.460Z,23.32
2018-10-16T10:49:28.670Z,23.35
2018-10-16T10:51:58.781Z,23.49
2018-10-16T10:54:28.853Z,23.70
2018-10-16T10:56:59.082Z,23.91
2018-10-16T10:59:28.929Z,24.07
2018-10-16T11:01:59.080Z,24.22
2018-10-16T11:04:29.142Z,24.30
2018-10-16T11:06:59.170Z,24.42
2018-10-16T11:09:29.231Z,24.48
2018-10-16T11:11:59.741Z,24.53
2018-10-16T11:14:30.180Z,24.40
2018-10-16T11:17:00.177Z,24.40
2018-10-16T11:19:30.308Z,24.32
2018-10-16T11:22:00.419Z,24.47
2018-10-16T11:24:30.485Z,24.60
2018-10-16T11:27:00.587Z,24.65
2018-10-16T11:29:30.539Z,24.56
2018-10-16T11:32:00.576Z,24.75
2018-10-16T11:34:30.517Z,24.88
2018-10-16T11:37:00.602Z,24.98
2018-10-16T11:39:30.612Z,24.99
2018-10-16T11:42:00.826Z,25.05
2018-10-16T11:44:30.936Z,25.06
2018-10-16T11:47:00.951Z,25.16
2018-10-16T11:49:31.131Z,25.32
2018-10-16T11:52:01.234Z,25.48
2018-10-16T11:54:31.220Z,25.59
2018-10-16T11:57:01.248Z,25.77
2018-10-16T11:59:31.314Z,25.57
2018-10-16T12:02:01.521Z,25.55
2018-10-16T12:04:31.606Z,25.59
2018-10-16T12:07:01.587Z,25.64
2018-10-16T12:09:31.929Z,25.66
2018-10-16T12:12:02.101Z,25.59
2018-10-16T12:14:32.158Z,25.60
2018-10-16T12:17:20.990Z,25.62
2018-10-16T12:19:57.617Z,25.60
2018-10-16T12:22:27.649Z,25.63
2018-10-16T12:24:57.686Z,25.75
2018-10-16T12:27:27.658Z,25.72
2018-10-16T12:29:57.846Z,25.78
2018-10-16T12:32:27.844Z,25.93
2018-10-16T12:34:57.875Z,26.06
2018-10-16T12:37:27.875Z,26.07
2018-10-16T12:39:57.882Z,26.20
2018-10-16T12:42:28.035Z,26.13
2018-10-16T12:44:58.184Z,26.14
2018-10-16T12:47:28.262Z,26.15
2018-10-16T12:49:58.394Z,25.81
2018-10-16T12:52:28.441Z,25.68
2018-10-16T12:54:58.465Z,25.53
2018-10-16T12:57:28.699Z,25.18
2018-10-16T12:59:58.707Z,25.20
2018-10-16T13:02:28.745Z,25.36
2018-10-16T13:04:58.861Z,25.29
2018-10-16T13:07:38.989Z,25.34
2018-10-16T13:10:14.624Z,25.51
2018-10-16T13:12:45.607Z,25.65
2018-10-16T13:15:16.483Z,25.71
2018-10-16T13:17:46.760Z,25.45
2018-10-16T13:20:17.163Z,25.32
2018-10-16T13:22:48.538Z,25.18
2018-10-16T13:25:18.787Z,25.19
2018-10-16T13:27:48.823Z,25.18
2018-10-16T13:30:19.903Z,25.25
2018-10-16T13:32:50.770Z,25.29
2018-10-16T13:35:21.671Z,25.34
2018-10-16T13:37:51.731Z,25.52
2018-10-16T13:40:21.764Z,25.51
2018-10-16T13:42:51.784Z,25.46
2018-10-16T13:45:21.881Z,25.39
2018-10-16T13:47:51.989Z,25.30
2018-10-16T13:50:22.060Z,25.29
2018-10-16T13:52:52.050Z,25.33
2018-10-16T13:55:22.198Z,25.13
2018-10-16T13:57:52.218Z,25.08
2018-10-16T14:00:22.494Z,24.95
2018-10-16T14:02:54.313Z,24.90
2018-10-16T14:05:24.300Z,24.77
2018-10-16T14:07:54.337Z,24.60
2018-10-16T14:10:24.265Z,24.47
2018-10-16T14:12:54.286Z,24.39
2018-10-16T14:15:24.269Z,24.32
2018-10-16T14:17:54.348Z,24.36
2018-10-16T14:20:24.354Z,24.40
2018-10-16T14:22:54.369Z,24.36
2018-10-16T14:25:24.380Z,24.26
2018-10-16T14:27:54.457Z,24.19
2018-10-16T14:30:24.551Z,24.05
2018-10-16T14:32:54.630Z,23.99
2018-10-16T14:37:54.688Z,23.97
2018-10-16T14:40:24.728Z,23.93
2018-10-16T14:42:54.692Z,23.96
2018-10-16T14:45:24.715Z,23.98
2018-10-16T14:47:54.788Z,24.08
2018-10-16T14:50:24.662Z,24.27
2018-10-16T14:52:54.631Z,24.43
2018-10-16T14:55:24.635Z,24.56
2018-10-16T14:57:54.690Z,24.67
2018-10-16T15:00:24.640Z,24.68
2018-10-16T15:02:54.646Z,24.66
2018-10-16T15:05:24.668Z,24.69
2018-10-16T15:07:54.736Z,24.76
2018-10-16T15:10:24.817Z,24.79
2018-10-16T15:12:54.841Z,24.69
2018-10-16T15:15:24.809Z,24.51
2018-10-16T15:17:54.839Z,24.34
2018-10-16T15:20:24.884Z,24.11
2018-10-16T15:22:54.849Z,23.88
2018-10-16T15:25:24.891Z,23.61
2018-10-16T15:27:54.923Z,23.35
2018-10-16T15:30:24.969Z,23.11
2018-10-16T15:32:55.075Z,22.93
2018-10-16T15:35:25.096Z,22.72
2018-10-16T15:37:55.350Z,22.56
2018-10-16T15:40:25.322Z,22.38
2018-10-16T15:42:55.408Z,22.27
2018-10-16T15:45:25.431Z,22.17
2018-10-16T15:50:25.457Z,21.97
2018-10-16T15:52:55.466Z,21.79
2018-10-16T15:55:25.585Z,21.56
2018-10-16T15:57:55.579Z,21.38
2018-10-16T16:00:25.720Z,21.24
2018-10-16T16:02:55.768Z,21.07
2018-10-16T16:05:25.760Z,20.93
2018-10-16T16:07:55.879Z,20.80
2018-10-16T16:10:25.960Z,20.69
2018-10-16T16:12:56.101Z,20.56
2018-10-16T16:15:26.145Z,20.41
2018-10-16T16:17:56.188Z,20.29
2018-10-16T16:20:26.318Z,20.18
2018-10-16T16:22:56.279Z,20.10
2018-10-16T16:25:26.251Z,19.98
2018-10-16T16:27:56.345Z,19.79
2018-10-16T16:30:26.344Z,19.65
2018-10-16T16:32:56.341Z,19.49
2018-10-16T16:35:26.353Z,19.39
2018-10-16T16:37:56.548Z,19.23
2018-10-16T16:40:26.499Z,19.14
2018-10-16T16:42:56.794Z,19.07
2018-10-16T16:45:26.807Z,18.96
2018-10-16T16:47:56.804Z,18.86
2018-10-16T16:50:26.816Z,18.79
2018-10-16T16:52:56.991Z,18.69
2018-10-16T16:55:27.039Z,18.60
2018-10-16T16:57:57.088Z,18.42
2018-10-16T17:00:27.155Z,18.42
2018-10-16T17:02:57.173Z,18.41
2018-10-16T17:05:27.199Z,18.43
2018-10-16T17:07:57.290Z,18.30
2018-10-16T17:10:27.370Z,18.11
2018-10-16T17:12:57.389Z,18.11
2018-10-16T17:15:27.550Z,18.11
2018-10-16T17:17:57.678Z,18.09
2018-10-16T17:20:27.719Z,18.01
2018-10-16T17:22:57.765Z,17.87
2018-10-16T17:25:28.009Z,17.75
2018-10-16T17:27:57.905Z,17.75
2018-10-16T17:30:27.840Z,17.77
2018-10-16T17:32:57.894Z,17.73
2018-10-16T17:35:27.955Z,17.70
2018-10-16T17:37:57.981Z,17.66
2018-10-16T17:40:28.063Z,17.58
2018-10-16T17:42:58.159Z,17.52
2018-10-16T17:45:28.303Z,17.48
2018-10-16T17:47:58.545Z,17.40
2018-10-16T17:50:28.654Z,17.37
2018-10-16T17:52:58.750Z,17.32
2018-10-16T17:55:28.869Z,17.29
2018-10-16T17:57:58.913Z,17.26
2018-10-16T18:00:28.875Z,17.22
2018-10-16T18:02:58.980Z,17.44
2018-10-16T18:05:29.013Z,17.38
2018-10-16T18:07:59.034Z,17.17
2018-10-16T18:10:29.091Z,16.99
2018-10-16T18:12:59.225Z,16.91
2018-10-16T18:15:29.202Z,16.89
2018-10-16T18:17:59.220Z,16.84
2018-10-16T18:20:29.252Z,16.77
2018-10-16T18:22:59.219Z,16.74
2018-10-16T18:25:29.192Z,16.73
2018-10-16T18:27:59.220Z,16.66
2018-10-16T18:30:29.329Z,16.55
2018-10-16T18:32:59.341Z,16.53
2018-10-16T18:35:37.834Z,16.53
2018-10-16T18:38:07.903Z,16.53
2018-10-16T18:40:38.050Z,16.44
2018-10-16T18:43:08.230Z,16.40
2018-10-16T18:45:38.290Z,16.35
2018-10-16T18:48:08.414Z,16.23
2018-10-16T18:50:38.559Z,16.20
2018-10-16T18:53:08.802Z,16.16
2018-10-16T18:55:38.920Z,16.11
2018-10-16T18:58:08.999Z,16.02
2018-10-16T19:00:39.129Z,15.98
2018-10-16T19:03:09.272Z,15.94
2018-10-16T19:05:39.280Z,15.88
2018-10-16T19:08:09.394Z,15.84
2018-10-16T19:10:39.469Z,15.78
2018-10-16T19:13:09.635Z,15.74
2018-10-16T19:15:39.678Z,15.72
2018-10-16T19:18:09.684Z,15.65
2018-10-16T19:20:39.685Z,15.62
2018-10-16T19:23:09.674Z,15.69
2018-10-16T19:25:39.675Z,15.64
2018-10-16T19:28:09.933Z,15.54
2018-10-16T19:30:39.982Z,15.58
2018-10-16T19:33:10.150Z,15.64
2018-10-16T19:35:40.128Z,15.65
2018-10-16T19:38:10.200Z,15.64
2018-10-16T19:40:40.270Z,15.62
2018-10-16T19:43:10.288Z,15.61
2018-10-16T19:45:40.477Z,15.58
2018-10-16T19:48:10.549Z,15.60
2018-10-16T19:50:40.575Z,15.57
2018-10-16T19:53:10.678Z,15.53
2018-10-16T19:55:40.688Z,15.62
2018-10-16T19:58:10.745Z,15.60
2018-10-16T20:00:40.733Z,15.57
2018-10-16T20:03:10.870Z,15.57
2018-10-16T20:05:40.840Z,15.48
2018-10-16T20:08:10.917Z,15.41
2018-10-16T20:10:41.071Z,15.45
2018-10-16T20:13:11.219Z,15.50
2018-10-16T20:15:41.335Z,15.45
2018-10-16T20:18:11.387Z,15.49
2018-10-16T20:20:41.389Z,15.53
2018-10-16T20:23:11.400Z,15.49
2018-10-16T20:25:41.475Z,15.40
2018-10-16T20:28:11.538Z,15.30
2018-10-16T20:30:41.596Z,15.33
2018-10-16T20:33:11.530Z,15.33
2018-10-16T20:35:41.544Z,15.27
2018-10-16T20:38:11.659Z,15.23
2018-10-16T20:40:41.759Z,15.21
2018-10-16T20:43:11.830Z,15.19
2018-10-16T20:45:41.856Z,15.17
2018-10-16T20:48:11.911Z,15.11
2018-10-16T20:50:42.112Z,15.12
2018-10-16T20:53:12.129Z,15.06
2018-10-16T20:55:42.312Z,15.03
2018-10-16T20:58:12.320Z,14.96
2018-10-16T21:00:42.482Z,14.90
2018-10-16T21:03:12.483Z,14.88
2018-10-16T21:05:42.540Z,14.84
2018-10-16T21:08:12.618Z,14.84
2018-10-16T21:10:42.675Z,14.87
2018-10-16T21:13:12.901Z,14.87
2018-10-16T21:15:43.036Z,14.82
2018-10-16T21:18:13.102Z,14.78
2018-10-16T21:20:43.159Z,14.80
2018-10-16T21:23:13.329Z,14.81
2018-10-16T21:25:43.314Z,14.80
2018-10-16T21:28:13.288Z,14.88
2018-10-16T21:30:43.309Z,14.90
2018-10-16T21:33:13.417Z,14.85
2018-10-16T21:35:43.562Z,14.81
2018-10-16T21:38:13.574Z,14.82
2018-10-16T21:40:43.535Z,14.75
2018-10-16T21:43:13.870Z,14.73
2018-10-16T21:45:44.300Z,14.66
2018-10-16T21:48:14.577Z,14.62
2018-10-16T21:50:44.785Z,14.57
2018-10-16T21:55:45.952Z,14.46
2018-10-16T21:58:15.977Z,14.43
2018-10-16T22:01:03.357Z,14.40
2018-10-16T22:03:33.448Z,14.40
2018-10-16T22:06:03.549Z,14.36
2018-10-16T22:08:33.597Z,14.28
2018-10-16T22:11:03.822Z,14.23
2018-10-16T22:13:33.741Z,14.28
2018-10-16T22:16:03.809Z,14.25
2018-10-16T22:18:33.804Z,14.24
2018-10-16T22:21:03.849Z,14.25
2018-10-16T22:23:33.992Z,14.32
2018-10-16T22:26:03.998Z,14.36
2018-10-16T22:28:34.107Z,14.32
2018-10-16T22:31:04.269Z,14.29
2018-10-16T22:33:34.274Z,14.28
2018-10-16T22:36:04.296Z,14.29
2018-10-16T22:38:34.303Z,14.32
2018-10-16T22:41:04.411Z,14.32
2018-10-16T22:43:34.342Z,14.34
2018-10-16T22:46:04.483Z,14.33
2018-10-16T22:48:34.464Z,14.30
2018-10-16T22:51:04.702Z,14.31
2018-10-16T22:53:34.909Z,14.27
2018-10-16T22:56:04.913Z,14.32
2018-10-16T22:58:34.894Z,14.33
2018-10-16T23:01:04.982Z,14.23
2018-10-16T23:03:34.973Z,14.18
2018-10-16T23:06:04.927Z,14.13
2018-10-16T23:08:34.953Z,14.04
2018-10-16T23:11:04.920Z,13.99
2018-10-16T23:13:34.862Z,14.01
2018-10-16T23:16:04.946Z,14.05
2018-10-16T23:18:35.047Z,14.09
2018-10-16T23:21:05.238Z,14.17
2018-10-16T23:23:35.188Z,14.18
2018-10-16T23:26:05.227Z,14.15
2018-10-16T23:28:35.252Z,14.10
2018-10-16T23:31:05.293Z,14.07
2018-10-16T23:33:35.323Z,14.00
2018-10-16T23:36:05.330Z,14.02
2018-10-16T23:38:35.544Z,14.03
2018-10-16T23:41:05.728Z,14.02
2018-10-16T23:43:35.876Z,13.96
2018-10-16T23:46:06.068Z,13.90
2018-10-16T23:48:36.207Z,13.81
2018-10-16T23:51:06.433Z,13.77
2018-10-16T23:53:36.482Z,13.75
2018-10-16T23:56:06.440Z,13.78
2018-10-16T23:58:36.634Z,13.77
